createdAt,value
2023-04-16T00:02:04.168Z,8.70
2023-04-16T00:04:31.293Z,7.72
2023-04-16T00:06:58.290Z,7.38
2023-04-16T00:09:25.308Z,6.93
2023-04-16T00:11:52.341Z,6.43
2023-04-16T00:14:19.657Z,6.38
2023-04-16T00:16:46.930Z,6.43
2023-04-16T00:19:13.850Z,6.25
2023-04-16T00:21:40.714Z,5.82
2023-04-16T00:24:07.688Z,6.32
2023-04-16T00:26:34.703Z,5.93
2023-04-16T00:29:01.870Z,6.10
2023-04-16T00:31:30.720Z,5.60
2023-04-16T00:33:58.698Z,5.57
2023-04-16T00:36:27.513Z,6.13
2023-04-16T00:38:55.776Z,5.63
2023-04-16T00:41:26.461Z,5.68
2023-04-16T00:43:53.488Z,5.43
2023-04-16T00:46:23.550Z,5.50
2023-04-16T00:48:52.518Z,6.22
2023-04-16T00:51:21.470Z,5.50
2023-04-16T00:53:48.752Z,5.78
2023-04-16T00:56:17.713Z,6.25
2023-04-16T00:58:45.026Z,7.20
2023-04-16T01:03:53.327Z,8.63
2023-04-16T01:06:20.914Z,9.35
2023-04-16T01:08:48.789Z,9.20
2023-04-16T01:11:16.573Z,8.65
2023-04-16T01:13:43.598Z,10.18
2023-04-16T01:16:12.484Z,8.80
2023-04-16T01:18:39.794Z,8.55
2023-04-16T01:21:07.172Z,10.95
2023-04-16T01:23:34.210Z,11.23
2023-04-16T01:26:01.221Z,10.25
2023-04-16T01:28:28.062Z,10.90
2023-04-16T01:30:54.990Z,10.52
2023-04-16T01:33:22.076Z,9.02
2023-04-16T01:35:49.059Z,9.90
2023-04-16T01:38:15.968Z,7.65
2023-04-16T01:40:42.820Z,8.85
2023-04-16T01:43:09.662Z,9.18
2023-04-16T01:45:36.701Z,7.70
2023-04-16T01:48:04.542Z,9.75
2023-04-16T01:50:32.018Z,10.70
2023-04-16T01:52:58.893Z,9.85
2023-04-16T01:55:26.981Z,12.30
2023-04-16T01:57:53.820Z,11.40
2023-04-16T02:00:20.691Z,12.25
2023-04-16T02:02:49.458Z,11.85
2023-04-16T02:05:16.781Z,11.82
2023-04-16T02:07:43.658Z,11.43
2023-04-16T02:10:10.895Z,11.95
2023-04-16T02:12:37.796Z,11.30
2023-04-16T02:15:05.471Z,10.57
2023-04-16T02:17:32.484Z,9.40
2023-04-16T02:19:59.408Z,10.45
2023-04-16T02:22:26.245Z,9.63
2023-04-16T02:24:53.118Z,9.93
2023-04-16T02:27:19.917Z,8.23
2023-04-16T02:29:46.821Z,8.35
2023-04-16T02:32:13.949Z,8.40
2023-04-16T02:34:41.763Z,8.50
2023-04-16T02:37:08.600Z,8.63
2023-04-16T02:39:35.546Z,8.63
2023-04-16T02:42:02.938Z,7.55
2023-04-16T02:44:29.879Z,7.40
2023-04-16T02:46:56.730Z,6.88
2023-04-16T02:49:23.655Z,7.15
2023-04-16T02:51:50.609Z,5.13
2023-04-16T02:54:17.528Z,4.90
2023-04-16T02:56:44.361Z,4.47
2023-04-16T02:59:11.344Z,4.43
2023-04-16T03:01:38.412Z,5.03
2023-04-16T03:04:05.675Z,5.10
2023-04-16T03:06:32.807Z,4.88
2023-04-16T03:08:59.656Z,4.70
2023-04-16T03:11:26.661Z,4.25
2023-04-16T03:13:53.995Z,5.32
2023-04-16T03:16:20.963Z,5.30
2023-04-16T03:18:47.831Z,4.93
2023-04-16T03:21:14.729Z,4.88
2023-04-16T03:23:41.738Z,5.38
2023-04-16T03:26:08.621Z,6.22
2023-04-16T03:28:35.520Z,5.70
2023-04-16T03:31:02.395Z,5.45
2023-04-16T03:33:29.474Z,6.38
2023-04-16T03:35:57.466Z,6.93
2023-04-16T03:38:26.258Z,6.82
2023-04-16T03:40:53.122Z,7.90
2023-04-16T03:43:20.079Z,7.78
2023-04-16T03:45:47.928Z,7.57
2023-04-16T03:48:16.050Z,7.00
2023-04-16T03:50:47.071Z,7.47
2023-04-16T03:53:14.217Z,7.40
2023-04-16T03:55:44.327Z,8.10
2023-04-16T03:58:12.538Z,6.72
2023-04-16T04:00:42.599Z,7.40
2023-04-16T04:03:10.706Z,6.93
2023-04-16T04:05:41.389Z,7.10
2023-04-16T04:08:08.990Z,6.57
2023-04-16T04:10:36.376Z,5.90
2023-04-16T04:13:04.533Z,6.88
2023-04-16T04:15:31.954Z,5.85
2023-04-16T04:17:59.844Z,6.78
2023-04-16T04:20:26.858Z,6.45
2023-04-16T04:22:53.670Z,6.43
2023-04-16T04:25:20.501Z,6.53
2023-04-16T04:27:47.416Z,6.05
2023-04-16T04:30:14.318Z,6.50
2023-04-16T04:32:41.173Z,6.68
2023-04-16T04:35:08.390Z,6.28
2023-04-16T04:37:35.289Z,7.55
2023-04-16T04:40:02.169Z,7.22
2023-04-16T04:42:29.037Z,7.70
2023-04-16T04:44:56.136Z,9.15
2023-04-16T04:47:23.061Z,13.60
2023-04-16T04:49:49.877Z,17.77
2023-04-16T04:52:16.730Z,13.98
2023-04-16T04:54:43.517Z,10.15
2023-04-16T04:57:10.308Z,9.73
2023-04-16T04:59:37.177Z,9.93
2023-04-16T05:02:04.209Z,9.52
2023-04-16T05:04:31.510Z,8.25
2023-04-16T05:06:58.507Z,8.50
2023-04-16T05:09:25.487Z,7.88
2023-04-16T05:11:52.499Z,5.90
2023-04-16T05:14:19.451Z,6.28
2023-04-16T05:16:46.386Z,5.78
2023-04-16T05:19:13.410Z,7.13
2023-04-16T05:21:40.461Z,6.35
2023-04-16T05:24:07.343Z,5.88
2023-04-16T05:26:34.170Z,6.47
2023-04-16T05:29:01.278Z,6.20
2023-04-16T05:31:28.132Z,6.50
2023-04-16T05:33:54.934Z,6.55
2023-04-16T05:36:21.751Z,7.72
2023-04-16T05:38:48.602Z,8.30
2023-04-16T05:41:15.757Z,10.20
2023-04-16T05:43:42.632Z,12.32
2023-04-16T05:46:09.482Z,12.57
2023-04-16T05:48:36.366Z,11.98
2023-04-16T05:51:03.407Z,9.90
2023-04-16T05:53:30.283Z,23.55
2023-04-16T05:55:57.138Z,136.90
2023-04-16T05:58:24.006Z,30.48
2023-04-16T06:00:51.452Z,15.10
2023-04-16T06:03:18.388Z,12.75
2023-04-16T06:05:45.386Z,11.20
2023-04-16T06:08:12.193Z,24.85
2023-04-16T06:10:39.510Z,23.83
2023-04-16T06:13:06.392Z,14.52
2023-04-16T06:15:33.210Z,27.95
2023-04-16T06:18:01.044Z,18.70
2023-04-16T06:20:28.137Z,20.10
2023-04-16T06:22:56.178Z,58.42
2023-04-16T06:25:23.188Z,19.38
2023-04-16T06:27:50.087Z,17.27
2023-04-16T06:30:17.091Z,18.23
2023-04-16T06:32:44.622Z,12.02
2023-04-16T06:35:11.773Z,9.75
2023-04-16T06:37:38.839Z,11.05
2023-04-16T06:40:06.377Z,9.82
2023-04-16T06:42:33.378Z,10.18
2023-04-16T06:45:00.817Z,9.30
2023-04-16T06:47:27.670Z,13.63
2023-04-16T06:49:54.565Z,14.98
2023-04-16T06:52:21.364Z,16.42
2023-04-16T06:54:48.827Z,13.23
2023-04-16T06:57:16.434Z,12.07
2023-04-16T06:59:43.245Z,10.27
2023-04-16T07:02:11.007Z,10.00
2023-04-16T07:04:37.989Z,9.07
2023-04-16T07:07:04.829Z,8.68
2023-04-16T07:09:31.644Z,8.02
2023-04-16T07:11:58.561Z,8.35
2023-04-16T07:14:25.500Z,8.30
2023-04-16T07:16:52.332Z,8.43
2023-04-16T07:19:19.306Z,7.38
2023-04-16T07:21:46.743Z,8.40
2023-04-16T07:24:13.964Z,8.52
2023-04-16T07:26:41.208Z,7.75
2023-04-16T07:29:08.453Z,8.93
2023-04-16T07:31:35.681Z,8.80
2023-04-16T07:34:02.664Z,8.02
2023-04-16T07:36:29.541Z,8.23
2023-04-16T07:38:56.525Z,10.15
2023-04-16T07:41:23.882Z,12.77
2023-04-16T07:43:51.069Z,8.05
2023-04-16T07:46:17.946Z,7.70
2023-04-16T07:48:44.846Z,7.22
2023-04-16T07:51:11.781Z,7.78
2023-04-16T07:53:38.606Z,6.95
2023-04-16T07:56:05.753Z,6.28
2023-04-16T07:58:32.566Z,6.80
2023-04-16T08:00:59.479Z,6.18
2023-04-16T08:03:26.765Z,5.95
2023-04-16T08:05:53.778Z,6.28
2023-04-16T08:08:20.652Z,6.00
2023-04-16T08:10:47.639Z,6.90
2023-04-16T08:13:14.439Z,6.25
2023-04-16T08:15:41.622Z,7.28
2023-04-16T08:18:13.128Z,7.95
2023-04-16T08:20:39.970Z,8.77
2023-04-16T08:23:06.873Z,7.85
2023-04-16T08:25:33.831Z,7.93
2023-04-16T08:28:00.891Z,8.65
2023-04-16T08:30:28.771Z,7.32
2023-04-16T08:32:55.810Z,7.72
2023-04-16T08:35:23.246Z,15.63
2023-04-16T08:37:50.061Z,7.93
2023-04-16T08:40:17.430Z,9.52
2023-04-16T08:42:54.542Z,4.82
2023-04-16T08:45:21.660Z,8.57
2023-04-16T08:47:50.673Z,4.10
2023-04-16T08:50:22.938Z,3.58
2023-04-16T08:52:53.884Z,5.53
2023-04-16T08:55:31.107Z,3.10
2023-04-16T08:58:02.190Z,2.30
2023-04-16T09:00:31.827Z,9.40
2023-04-16T09:02:59.208Z,5.05
2023-04-16T09:05:27.932Z,5.68
2023-04-16T09:07:54.876Z,2.50
2023-04-16T09:10:22.337Z,4.53
2023-04-16T09:12:49.199Z,6.30
2023-04-16T09:15:16.001Z,3.03
2023-04-16T09:17:42.890Z,4.38
2023-04-16T09:20:11.279Z,4.65
2023-04-16T09:22:40.152Z,3.30
2023-04-16T09:25:07.749Z,2.40
2023-04-16T09:27:34.618Z,1.88
2023-04-16T09:30:01.605Z,2.10
2023-04-16T09:32:29.359Z,1.88
2023-04-16T09:35:01.269Z,5.57
2023-04-16T09:37:31.660Z,3.75
2023-04-16T09:40:04.952Z,2.80
2023-04-16T09:42:34.364Z,6.07
2023-04-16T09:45:03.483Z,3.50
2023-04-16T09:47:43.257Z,2.83
2023-04-16T09:50:17.728Z,3.40
2023-04-16T09:52:48.722Z,5.00
2023-04-16T09:55:15.606Z,5.32
2023-04-16T09:57:42.592Z,3.55
2023-04-16T10:00:10.706Z,2.95
2023-04-16T10:02:42.142Z,3.67
2023-04-16T10:05:09.811Z,5.70
2023-04-16T10:07:37.741Z,5.85
2023-04-16T10:10:05.086Z,6.03
2023-04-16T10:12:33.058Z,3.38
2023-04-16T10:15:00.059Z,5.10
2023-04-16T10:17:30.202Z,3.70
2023-04-16T10:19:58.548Z,3.20
2023-04-16T10:22:26.697Z,4.28
2023-04-16T10:24:54.279Z,4.10
2023-04-16T10:27:21.433Z,2.47
2023-04-16T10:29:49.162Z,2.50
2023-04-16T10:32:18.424Z,2.30
2023-04-16T10:34:45.793Z,11.32
2023-04-16T10:37:12.877Z,2.95
2023-04-16T10:39:39.749Z,3.60
2023-04-16T10:42:13.598Z,6.82
2023-04-16T10:44:43.458Z,3.63
2023-04-16T10:47:13.180Z,4.47
2023-04-16T10:49:40.761Z,7.82
2023-04-16T10:52:12.660Z,3.40
2023-04-16T10:54:40.874Z,2.80
2023-04-16T10:57:12.365Z,4.65
2023-04-16T10:59:43.317Z,2.20
2023-04-16T11:02:18.370Z,3.10
2023-04-16T11:04:49.524Z,2.30
2023-04-16T11:07:21.637Z,3.17
2023-04-16T11:10:04.445Z,4.10
2023-04-16T11:12:34.362Z,4.55
2023-04-16T11:15:02.853Z,2.17
2023-04-16T11:17:38.154Z,3.22
2023-04-16T11:20:20.975Z,6.13
2023-04-16T11:22:55.785Z,3.30
2023-04-16T11:25:29.637Z,4.43
2023-04-16T11:27:59.065Z,4.93
2023-04-16T11:30:31.123Z,8.30
2023-04-16T11:32:58.149Z,6.15
2023-04-16T11:35:25.370Z,5.70
2023-04-16T11:37:56.628Z,3.85
2023-04-16T11:40:23.683Z,3.35
2023-04-16T11:42:50.903Z,5.45
2023-04-16T11:45:19.545Z,6.25
2023-04-16T11:47:55.591Z,6.03
2023-04-16T11:50:27.350Z,5.50
2023-04-16T11:53:03.354Z,4.68
2023-04-16T11:55:30.459Z,5.07
2023-04-16T11:57:57.326Z,4.22
2023-04-16T12:00:24.997Z,5.30
2023-04-16T12:02:54.950Z,4.50
2023-04-16T12:05:30.424Z,3.78
2023-04-16T12:07:58.545Z,3.10
2023-04-16T12:10:25.958Z,4.88
2023-04-16T12:12:52.831Z,3.97
2023-04-16T12:15:19.730Z,4.35
2023-04-16T12:17:46.635Z,3.63
2023-04-16T12:20:17.836Z,3.00
2023-04-16T12:22:49.865Z,3.80
2023-04-16T12:25:18.347Z,4.65
2023-04-16T12:27:54.130Z,3.75
2023-04-16T12:30:24.358Z,4.47
2023-04-16T12:33:14.057Z,6.38
2023-04-16T12:35:43.537Z,6.75
2023-04-16T12:38:10.936Z,4.20
2023-04-16T12:40:38.854Z,4.30
2023-04-16T12:43:05.737Z,5.95
2023-04-16T12:45:32.574Z,7.78
2023-04-16T12:47:59.664Z,5.20
2023-04-16T12:50:26.677Z,3.85
2023-04-16T12:52:53.549Z,4.93
2023-04-16T12:55:20.440Z,5.15
2023-04-16T12:57:49.067Z,3.65
2023-04-16T13:00:16.499Z,3.90
2023-04-16T13:02:43.514Z,4.80
2023-04-16T13:05:10.591Z,5.40
2023-04-16T13:07:37.551Z,4.95
2023-04-16T13:10:06.419Z,4.15
2023-04-16T13:12:33.261Z,3.88
2023-04-16T13:15:00.207Z,6.25
2023-04-16T13:17:27.031Z,6.32
2023-04-16T13:19:53.871Z,3.35
2023-04-16T13:22:20.902Z,3.42
2023-04-16T13:24:47.825Z,3.45
2023-04-16T13:27:16.217Z,3.25
2023-04-16T13:29:43.170Z,2.83
2023-04-16T13:32:10.206Z,2.78
2023-04-16T13:34:37.263Z,4.43
2023-04-16T13:37:04.089Z,4.53
2023-04-16T13:39:31.017Z,3.90
2023-04-16T13:41:57.830Z,4.65
2023-04-16T13:44:24.697Z,3.80
2023-04-16T13:46:51.920Z,4.80
2023-04-16T13:49:19.588Z,4.40
2023-04-16T13:51:46.421Z,4.80
2023-04-16T13:54:13.687Z,5.30
2023-04-16T13:56:40.983Z,5.53
2023-04-16T13:59:08.330Z,3.67
2023-04-16T14:01:35.562Z,3.45
2023-04-16T14:04:06.770Z,4.40
2023-04-16T14:06:35.009Z,3.40
2023-04-16T14:09:02.283Z,12.73
2023-04-16T14:11:29.125Z,9.98
2023-04-16T14:13:56.272Z,4.72
2023-04-16T14:16:23.375Z,2.92
2023-04-16T14:18:52.104Z,3.03
2023-04-16T14:21:19.333Z,2.83
2023-04-16T14:23:46.205Z,3.83
2023-04-16T14:26:13.235Z,4.20
2023-04-16T14:28:41.406Z,4.72
2023-04-16T14:31:08.589Z,3.33
2023-04-16T14:33:35.504Z,3.17
2023-04-16T14:36:03.302Z,3.00
2023-04-16T14:38:31.480Z,3.13
2023-04-16T14:40:58.433Z,3.25
2023-04-16T14:43:25.286Z,3.08
2023-04-16T14:45:52.889Z,3.30
2023-04-16T14:48:19.807Z,2.53
2023-04-16T14:50:46.762Z,3.00
2023-04-16T14:53:13.982Z,4.72
2023-04-16T14:55:40.893Z,3.75
2023-04-16T14:58:07.903Z,3.97
2023-04-16T15:00:35.786Z,3.10
2023-04-16T15:03:03.060Z,2.20
2023-04-16T15:05:30.525Z,2.55
2023-04-16T15:07:57.515Z,2.50
2023-04-16T15:10:24.417Z,2.97
2023-04-16T15:12:51.313Z,2.90
2023-04-16T15:15:18.245Z,3.22
2023-04-16T15:17:45.226Z,2.70
2023-04-16T15:20:13.156Z,4.10
2023-04-16T15:22:40.373Z,5.90
2023-04-16T15:25:07.756Z,3.17
2023-04-16T15:27:34.732Z,2.45
2023-04-16T15:30:01.595Z,3.15
2023-04-16T15:32:28.648Z,3.22
2023-04-16T15:34:55.491Z,5.10
2023-04-16T15:37:22.388Z,3.33
2023-04-16T15:39:49.896Z,3.85
2023-04-16T15:42:16.788Z,4.95
2023-04-16T15:44:43.647Z,4.10
2023-04-16T15:47:10.476Z,3.60
2023-04-16T15:49:37.327Z,3.47
2023-04-16T15:52:04.404Z,3.47
2023-04-16T15:54:31.985Z,3.28
2023-04-16T15:56:59.135Z,3.00
2023-04-16T15:59:27.214Z,3.30
2023-04-16T16:01:54.330Z,2.60
2023-04-16T16:04:26.507Z,3.15
2023-04-16T16:06:53.933Z,2.53
2023-04-16T16:09:26.533Z,4.70
2023-04-16T16:11:58.514Z,4.32
2023-04-16T16:14:26.920Z,5.80
2023-04-16T16:16:53.863Z,5.78
2023-04-16T16:19:20.857Z,6.28
2023-04-16T16:21:47.637Z,7.38
2023-04-16T16:24:14.686Z,6.13
2023-04-16T16:26:41.616Z,6.57
2023-04-16T16:29:08.566Z,6.60
2023-04-16T16:31:35.657Z,5.70
2023-04-16T16:34:02.815Z,5.03
2023-04-16T16:36:29.970Z,4.55
2023-04-16T16:38:57.123Z,5.70
2023-04-16T16:41:24.014Z,10.02
2023-04-16T16:43:51.175Z,8.88
2023-04-16T16:46:18.046Z,7.10
2023-04-16T16:48:45.099Z,12.02
2023-04-16T16:51:11.944Z,5.45
2023-04-16T16:53:38.744Z,6.20
2023-04-16T16:56:05.957Z,5.90
2023-04-16T16:58:33.117Z,4.03
2023-04-16T17:01:00.069Z,4.30
2023-04-16T17:03:27.158Z,3.53
2023-04-16T17:05:56.587Z,3.38
2023-04-16T17:08:23.961Z,11.55
2023-04-16T17:10:51.242Z,6.85
2023-04-16T17:13:21.328Z,3.53
2023-04-16T17:15:48.150Z,3.70
2023-04-16T17:18:15.119Z,4.22
2023-04-16T17:20:42.024Z,5.05
2023-04-16T17:23:08.875Z,5.10
2023-04-16T17:25:35.800Z,5.57
2023-04-16T17:28:03.243Z,4.93
2023-04-16T17:30:31.375Z,4.93
2023-04-16T17:32:58.438Z,4.70
2023-04-16T17:35:25.858Z,4.13
2023-04-16T17:37:52.697Z,4.55
2023-04-16T17:40:19.627Z,3.40
2023-04-16T17:42:46.461Z,4.40
2023-04-16T17:45:13.753Z,4.57
2023-04-16T17:47:41.042Z,3.83
2023-04-16T17:50:11.605Z,3.65
2023-04-16T17:52:38.536Z,3.50
2023-04-16T17:55:06.666Z,3.40
2023-04-16T17:57:34.037Z,4.65
2023-04-16T18:00:00.821Z,4.32
2023-04-16T18:02:27.811Z,4.47
2023-04-16T18:04:54.913Z,3.90
2023-04-16T18:07:21.890Z,4.68
2023-04-16T18:09:48.849Z,5.78
2023-04-16T18:12:16.515Z,6.25
2023-04-16T18:14:44.918Z,7.05
2023-04-16T18:17:11.947Z,6.47
2023-04-16T18:19:40.655Z,6.30
2023-04-16T18:22:07.669Z,6.07
2023-04-16T18:24:36.617Z,5.70
2023-04-16T18:27:04.064Z,4.82
2023-04-16T18:29:33.902Z,4.88
2023-04-16T18:32:04.264Z,5.93
2023-04-16T18:34:31.865Z,6.00
2023-04-16T18:36:58.700Z,6.47
2023-04-16T18:39:25.855Z,7.60
2023-04-16T18:41:52.790Z,9.10
2023-04-16T18:44:20.100Z,9.38
2023-04-16T18:46:47.095Z,9.23
2023-04-16T18:49:14.142Z,9.95
2023-04-16T18:51:42.164Z,10.80
2023-04-16T18:54:09.397Z,10.63
2023-04-16T18:56:36.337Z,10.60
2023-04-16T18:59:03.240Z,11.43
2023-04-16T19:01:30.136Z,9.93
2023-04-16T19:03:57.319Z,10.05
2023-04-16T19:06:24.347Z,11.93
2023-04-16T19:08:51.386Z,10.48
2023-04-16T19:11:18.266Z,10.90
2023-04-16T19:13:45.266Z,9.15
2023-04-16T19:16:12.536Z,9.27
2023-04-16T19:18:39.538Z,10.40
2023-04-16T19:21:07.314Z,11.45
2023-04-16T19:23:34.338Z,12.50
2023-04-16T19:26:01.753Z,12.02
2023-04-16T19:28:28.895Z,12.98
2023-04-16T19:30:56.299Z,25.17
2023-04-16T19:33:23.173Z,22.90
2023-04-16T19:35:50.145Z,27.58
2023-04-16T19:38:17.167Z,28.67
2023-04-16T19:40:46.731Z,27.73
2023-04-16T19:43:14.383Z,28.83
2023-04-16T19:45:52.506Z,29.00
2023-04-16T19:48:20.583Z,29.33
2023-04-16T19:50:48.046Z,28.98
2023-04-16T19:53:17.304Z,26.88
2023-04-16T19:55:44.318Z,26.85
2023-04-16T19:58:11.265Z,25.30
2023-04-16T20:00:41.149Z,24.10
2023-04-16T20:03:08.323Z,24.40
2023-04-16T20:05:35.386Z,24.88
2023-04-16T20:08:02.333Z,24.30
2023-04-16T20:10:31.585Z,22.65
2023-04-16T20:12:58.747Z,22.63
2023-04-16T20:15:25.997Z,19.73
2023-04-16T20:17:53.504Z,18.40
2023-04-16T20:20:22.741Z,16.05
2023-04-16T20:22:49.639Z,16.60
2023-04-16T20:25:19.135Z,15.80
2023-04-16T20:27:46.371Z,17.05
2023-04-16T20:30:15.068Z,17.83
2023-04-16T20:32:41.918Z,17.70
2023-04-16T20:35:11.386Z,21.70
2023-04-16T20:37:38.814Z,17.63
2023-04-16T20:40:08.455Z,16.48
2023-04-16T20:42:35.591Z,19.02
2023-04-16T20:45:02.697Z,19.48
2023-04-16T20:47:29.597Z,18.98
2023-04-16T20:49:56.537Z,21.00
2023-04-16T20:52:23.437Z,20.17
2023-04-16T20:54:52.440Z,20.40
2023-04-16T20:57:19.417Z,19.17
2023-04-16T20:59:46.382Z,19.42
2023-04-16T21:02:14.021Z,18.77
2023-04-16T21:04:41.089Z,16.08
2023-04-16T21:07:08.079Z,15.30
2023-04-16T21:09:34.884Z,16.27
2023-04-16T21:12:01.968Z,15.52
2023-04-16T21:14:28.849Z,16.67
2023-04-16T21:16:55.718Z,15.00
2023-04-16T21:19:22.688Z,15.20
2023-04-16T21:21:49.610Z,14.63
2023-04-16T21:24:16.658Z,14.15
2023-04-16T21:26:43.459Z,11.82
2023-04-16T21:29:10.456Z,12.45
2023-04-16T21:31:37.448Z,13.02
2023-04-16T21:34:04.351Z,12.68
2023-04-16T21:36:33.196Z,14.98
2023-04-16T21:38:59.969Z,19.75
2023-04-16T21:41:26.963Z,19.70
2023-04-16T21:43:53.939Z,18.92
2023-04-16T21:46:21.478Z,17.83
2023-04-16T21:48:48.641Z,16.10
2023-04-16T21:51:15.939Z,13.68
2023-04-16T21:53:42.774Z,14.32
2023-04-16T21:56:09.694Z,13.05
2023-04-16T21:58:36.667Z,13.15
2023-04-16T22:01:03.543Z,13.48
2023-04-16T22:03:31.251Z,12.35
2023-04-16T22:06:01.259Z,12.93
2023-04-16T22:08:29.104Z,11.07
2023-04-16T22:11:01.703Z,10.65
2023-04-16T22:13:32.591Z,11.23
2023-04-16T22:16:02.716Z,11.00
2023-04-16T22:18:33.097Z,11.82
2023-04-16T22:21:00.252Z,20.30
2023-04-16T22:23:27.150Z,23.60
2023-04-16T22:25:55.535Z,21.40
2023-04-16T22:28:23.212Z,20.73
2023-04-16T22:30:50.108Z,19.73
2023-04-16T22:33:17.052Z,19.30
2023-04-16T22:35:43.937Z,18.50
2023-04-16T22:38:10.901Z,19.00
2023-04-16T22:40:37.865Z,18.52
2023-04-16T22:43:05.530Z,20.80
2023-04-16T22:45:32.367Z,19.42
2023-04-16T22:47:59.349Z,18.25
2023-04-16T22:50:26.282Z,18.70
2023-04-16T22:52:53.084Z,16.80
2023-04-16T22:55:20.033Z,14.77
2023-04-16T22:57:47.679Z,14.60
2023-04-16T23:00:18.303Z,13.50
2023-04-16T23:02:45.762Z,13.45
2023-04-16T23:05:12.697Z,11.77
2023-04-16T23:07:39.612Z,9.88
2023-04-16T23:10:08.818Z,10.02
2023-04-16T23:12:38.943Z,10.88
2023-04-16T23:15:06.967Z,10.43
2023-04-16T23:17:34.066Z,10.15
2023-04-16T23:20:01.106Z,9.98
2023-04-16T23:22:28.166Z,10.25
2023-04-16T23:24:55.092Z,8.48
2023-04-16T23:27:22.079Z,9.45
2023-04-16T23:29:49.002Z,9.30
2023-04-16T23:32:15.923Z,10.27
2023-04-16T23:34:42.775Z,9.98
2023-04-16T23:37:09.749Z,9.93
2023-04-16T23:39:36.594Z,9.98
2023-04-16T23:42:03.557Z,9.68
2023-04-16T23:44:30.773Z,9.25
2023-04-16T23:46:57.702Z,11.05
2023-04-16T23:49:25.248Z,11.57
2023-04-16T23:51:52.344Z,11.15
2023-04-16T23:54:19.486Z,11.80
2023-04-16T23:56:46.507Z,13.48
2023-04-16T23:59:13.891Z,14.18
